createdAt,value
2022-11-29T00:01:05.461Z,8.09
2022-11-29T00:03:32.739Z,8.20
2022-11-29T00:06:12.253Z,8.13
2022-11-29T00:08:39.065Z,8.25
2022-11-29T00:11:07.095Z,8.25
2022-11-29T00:13:33.995Z,8.24
2022-11-29T00:16:09.298Z,8.20
2022-11-29T00:18:36.315Z,8.24
2022-11-29T00:21:09.238Z,8.20
2022-11-29T00:23:36.171Z,8.21
2022-11-29T00:26:04.833Z,8.23
2022-11-29T00:28:31.197Z,8.20
2022-11-29T00:30:57.595Z,8.19
2022-11-29T00:33:24.102Z,8.18
2022-11-29T00:35:50.461Z,8.15
2022-11-29T00:38:16.806Z,8.09
2022-11-29T00:40:43.166Z,8.01
2022-11-29T00:43:09.521Z,8.12
2022-11-29T00:45:35.918Z,8.13
2022-11-29T00:48:02.335Z,8.10
2022-11-29T00:50:28.689Z,8.11
2022-11-29T00:52:55.042Z,8.24
2022-11-29T00:55:21.429Z,8.29
2022-11-29T00:57:47.773Z,8.24
2022-11-29T01:00:14.743Z,8.24
2022-11-29T01:02:41.184Z,8.24
2022-11-29T01:05:07.984Z,8.19
2022-11-29T01:07:34.342Z,8.21
2022-11-29T01:10:00.751Z,8.20
2022-11-29T01:12:27.281Z,8.29
2022-11-29T01:14:53.662Z,8.23
2022-11-29T01:17:20.030Z,8.22
2022-11-29T01:19:50.644Z,8.19
2022-11-29T01:22:17.404Z,8.28
2022-11-29T01:24:44.032Z,8.26
2022-11-29T01:27:10.635Z,8.21
2022-11-29T01:29:37.044Z,8.19
2022-11-29T01:32:03.601Z,8.17
2022-11-29T01:34:30.138Z,8.14
2022-11-29T01:36:56.498Z,8.19
2022-11-29T01:39:22.837Z,8.11
2022-11-29T01:41:49.184Z,8.09
2022-11-29T01:44:15.464Z,8.17
2022-11-29T01:46:45.013Z,8.15
2022-11-29T01:49:19.042Z,8.13
2022-11-29T01:51:49.286Z,8.12
2022-11-29T01:54:15.807Z,8.07
2022-11-29T01:56:45.117Z,8.15
2022-11-29T01:59:15.126Z,8.16
2022-11-29T02:01:42.167Z,8.18
2022-11-29T02:04:08.742Z,8.15
2022-11-29T02:06:36.994Z,8.18
2022-11-29T02:09:04.457Z,8.19
2022-11-29T02:11:50.044Z,8.22
2022-11-29T02:14:36.680Z,8.21
2022-11-29T02:17:20.468Z,8.16
2022-11-29T02:20:11.328Z,8.09
2022-11-29T02:22:48.208Z,8.18
2022-11-29T02:26:00.561Z,8.17
2022-11-29T02:28:48.813Z,8.15
2022-11-29T02:31:55.063Z,8.04
2022-11-29T02:34:40.509Z,8.21
2022-11-29T02:37:27.994Z,8.21
2022-11-29T02:40:23.196Z,8.19
2022-11-29T02:43:04.513Z,8.25
2022-11-29T02:45:45.773Z,8.21
2022-11-29T02:48:21.364Z,8.18
2022-11-29T02:50:57.037Z,8.22
2022-11-29T02:53:44.150Z,8.21
2022-11-29T02:56:43.621Z,8.21
2022-11-29T02:59:29.527Z,8.18
2022-11-29T03:02:16.412Z,8.13
2022-11-29T03:04:54.807Z,8.13
2022-11-29T03:07:45.036Z,8.17
2022-11-29T03:10:54.341Z,8.13
2022-11-29T03:13:27.959Z,8.12
2022-11-29T03:16:27.679Z,8.16
2022-11-29T03:19:15.271Z,8.18
2022-11-29T03:22:11.894Z,8.14
2022-11-29T03:25:03.136Z,8.19
2022-11-29T03:27:42.304Z,8.13
2022-11-29T03:30:12.591Z,8.17
2022-11-29T03:32:45.033Z,8.12
2022-11-29T03:35:20.898Z,8.21
2022-11-29T03:38:20.775Z,8.21
2022-11-29T03:41:11.822Z,8.09
2022-11-29T03:44:00.915Z,8.12
2022-11-29T03:46:42.629Z,8.08
2022-11-29T03:49:18.271Z,8.20
2022-11-29T03:52:12.699Z,8.21
2022-11-29T03:55:08.902Z,8.19
2022-11-29T03:57:53.553Z,8.19
2022-11-29T04:00:20.621Z,8.21
2022-11-29T04:03:24.622Z,8.18
2022-11-29T04:06:07.657Z,8.25
2022-11-29T04:08:49.678Z,8.18
2022-11-29T04:11:37.491Z,8.08
2022-11-29T04:14:25.487Z,8.15
2022-11-29T04:17:22.164Z,8.17
2022-11-29T04:20:02.523Z,8.14
2022-11-29T04:22:53.799Z,8.20
2022-11-29T04:26:03.742Z,8.19
2022-11-29T04:28:55.012Z,8.21
2022-11-29T04:31:47.958Z,8.15
2022-11-29T04:34:34.895Z,8.22
2022-11-29T04:37:38.169Z,8.23
2022-11-29T04:40:26.195Z,8.22
2022-11-29T04:43:11.345Z,8.20
2022-11-29T04:46:03.049Z,8.11
2022-11-29T04:48:42.720Z,8.10
2022-11-29T04:51:28.660Z,8.06
2022-11-29T04:54:27.448Z,8.10
2022-11-29T04:57:11.715Z,8.08
2022-11-29T05:00:08.066Z,8.10
2022-11-29T05:02:49.515Z,8.07
2022-11-29T05:05:19.122Z,8.09
2022-11-29T05:07:54.727Z,8.10
2022-11-29T05:10:43.199Z,8.02
2022-11-29T05:13:20.488Z,7.97
2022-11-29T05:15:58.968Z,7.98
2022-11-29T05:18:57.482Z,7.97
2022-11-29T05:21:49.465Z,7.93
2022-11-29T05:24:40.937Z,7.92
2022-11-29T05:27:28.834Z,7.93
2022-11-29T05:30:05.244Z,7.94
2022-11-29T05:32:51.964Z,8.00
2022-11-29T05:35:40.272Z,7.96
2022-11-29T05:38:43.768Z,7.98
2022-11-29T05:41:21.917Z,7.93
2022-11-29T05:44:03.957Z,7.95
2022-11-29T05:46:42.792Z,7.94
2022-11-29T05:49:24.150Z,7.92
2022-11-29T05:52:03.827Z,7.96
2022-11-29T05:54:44.948Z,7.91
2022-11-29T05:57:21.613Z,7.88
2022-11-29T05:59:51.078Z,7.91
2022-11-29T06:02:26.661Z,7.92
2022-11-29T06:04:57.130Z,7.87
2022-11-29T06:07:38.644Z,7.77
2022-11-29T06:10:11.486Z,7.80
2022-11-29T06:12:38.486Z,7.87
2022-11-29T06:15:13.869Z,7.87
2022-11-29T06:18:07.857Z,7.92
2022-11-29T06:20:54.486Z,7.97
2022-11-29T06:23:59.049Z,7.93
2022-11-29T06:26:50.466Z,7.79
2022-11-29T06:29:49.674Z,7.89
2022-11-29T06:32:34.436Z,7.88
2022-11-29T06:35:19.555Z,7.88
2022-11-29T06:37:51.697Z,7.86
2022-11-29T06:40:18.126Z,7.83
2022-11-29T06:42:44.662Z,7.76
2022-11-29T06:45:13.831Z,7.80
2022-11-29T06:47:58.742Z,7.73
2022-11-29T06:50:55.769Z,7.75
2022-11-29T06:53:39.264Z,7.75
2022-11-29T06:56:20.526Z,7.77
2022-11-29T06:59:05.336Z,7.76
2022-11-29T07:01:46.244Z,7.76
2022-11-29T07:04:20.032Z,7.68
2022-11-29T07:06:46.978Z,7.70
2022-11-29T07:09:16.642Z,7.65
2022-11-29T07:11:43.709Z,7.67
2022-11-29T07:14:10.771Z,7.61
2022-11-29T07:16:45.266Z,7.54
2022-11-29T07:19:42.592Z,7.60
2022-11-29T07:22:25.043Z,7.61
2022-11-29T07:24:58.715Z,7.57
2022-11-29T07:27:30.782Z,7.59
2022-11-29T07:30:22.151Z,7.63
2022-11-29T07:33:32.048Z,7.64
2022-11-29T07:36:07.469Z,7.62
2022-11-29T07:39:04.668Z,7.67
2022-11-29T07:41:46.225Z,7.59
2022-11-29T07:44:43.651Z,7.64
2022-11-29T07:47:10.301Z,7.60
2022-11-29T07:49:36.621Z,7.66
2022-11-29T07:52:02.982Z,7.63
2022-11-29T07:54:30.129Z,7.63
2022-11-29T07:56:56.453Z,7.64
2022-11-29T07:59:22.827Z,7.69
2022-11-29T08:01:49.236Z,7.63
2022-11-29T08:04:15.629Z,7.65
2022-11-29T08:06:41.991Z,7.61
2022-11-29T08:09:08.585Z,7.67
2022-11-29T08:11:34.982Z,7.62
2022-11-29T08:14:02.872Z,7.70
2022-11-29T08:16:29.673Z,7.61
2022-11-29T08:18:56.136Z,7.73
2022-11-29T08:21:22.600Z,7.72
2022-11-29T08:23:49.781Z,7.77
2022-11-29T08:26:18.229Z,7.75
2022-11-29T08:28:44.778Z,7.82
2022-11-29T08:31:13.190Z,7.83
2022-11-29T08:33:42.299Z,7.87
2022-11-29T08:36:12.103Z,7.87
2022-11-29T08:38:38.514Z,7.91
2022-11-29T08:41:07.725Z,7.91
2022-11-29T08:43:34.373Z,7.94
2022-11-29T08:46:00.828Z,7.98
2022-11-29T08:48:27.417Z,7.98
2022-11-29T08:50:55.444Z,7.98
2022-11-29T08:53:41.097Z,8.00
2022-11-29T08:56:59.576Z,8.00
2022-11-29T08:58:58.875Z,7.99
2022-11-29T09:01:25.268Z,8.06
2022-11-29T09:04:02.296Z,8.14
2022-11-29T09:06:34.399Z,8.09
2022-11-29T09:09:01.305Z,8.10
2022-11-29T09:11:29.527Z,8.20
2022-11-29T09:13:58.389Z,8.14
2022-11-29T09:16:27.963Z,8.22
2022-11-29T09:18:55.915Z,8.22
2022-11-29T09:21:24.644Z,8.34
2022-11-29T09:23:58.424Z,8.29
2022-11-29T09:26:31.559Z,8.25
2022-11-29T09:29:02.934Z,8.31
2022-11-29T09:31:31.181Z,8.40
2022-11-29T09:33:57.709Z,8.37
2022-11-29T09:36:28.465Z,8.38
2022-11-29T09:38:55.507Z,8.46
2022-11-29T09:41:30.696Z,8.48
2022-11-29T09:44:03.033Z,8.47
2022-11-29T09:46:58.877Z,8.49
2022-11-29T09:49:46.369Z,8.52
2022-11-29T09:52:40.111Z,8.43
2022-11-29T09:55:26.539Z,8.49
2022-11-29T09:57:55.183Z,8.45
2022-11-29T10:00:21.952Z,8.43
2022-11-29T10:02:54.434Z,8.50
2022-11-29T10:05:56.173Z,8.48
2022-11-29T10:08:31.477Z,8.52
2022-11-29T10:11:14.189Z,8.48
2022-11-29T10:13:45.680Z,8.54
2022-11-29T10:16:20.364Z,8.57
2022-11-29T10:18:58.357Z,8.58
2022-11-29T10:21:32.221Z,8.56
2022-11-29T10:24:04.365Z,8.58
2022-11-29T10:26:35.168Z,8.64
2022-11-29T10:29:02.110Z,8.68
2022-11-29T10:31:33.164Z,8.78
2022-11-29T10:34:02.233Z,8.72
2022-11-29T10:36:43.353Z,8.73
2022-11-29T10:39:15.794Z,8.80
2022-11-29T10:41:42.244Z,8.74
2022-11-29T10:44:14.500Z,8.65
2022-11-29T10:46:41.210Z,8.60
2022-11-29T10:49:15.198Z,8.73
2022-11-29T10:51:41.614Z,8.63
2022-11-29T10:54:32.541Z,8.83
2022-11-29T10:57:00.694Z,8.91
2022-11-29T10:59:32.314Z,8.98
2022-11-29T11:01:58.911Z,8.95
2022-11-29T11:04:33.667Z,9.00
2022-11-29T11:07:02.634Z,9.06
2022-11-29T11:09:42.292Z,9.01
2022-11-29T11:12:14.689Z,9.01
2022-11-29T11:14:42.084Z,9.10
2022-11-29T11:17:30.060Z,9.09
2022-11-29T11:20:08.667Z,8.98
2022-11-29T11:22:39.741Z,9.01
2022-11-29T11:25:24.228Z,8.94
2022-11-29T11:27:50.961Z,9.03
2022-11-29T11:30:23.943Z,9.05
2022-11-29T11:33:29.621Z,9.21
2022-11-29T11:36:12.823Z,9.16
2022-11-29T11:39:12.531Z,9.16
2022-11-29T11:42:01.059Z,9.16
2022-11-29T11:44:49.848Z,9.24
2022-11-29T11:47:27.524Z,9.23
2022-11-29T11:49:59.985Z,9.25
2022-11-29T11:52:44.859Z,9.26
2022-11-29T11:55:21.446Z,9.22
2022-11-29T11:58:10.209Z,9.19
2022-11-29T12:03:50.764Z,9.17
2022-11-29T12:06:36.919Z,9.13
2022-11-29T12:09:09.796Z,9.27
2022-11-29T12:12:05.638Z,9.17
2022-11-29T12:14:31.968Z,9.16
2022-11-29T12:17:26.342Z,9.20
2022-11-29T12:20:10.105Z,9.11
2022-11-29T12:23:11.436Z,9.13
2022-11-29T12:25:53.113Z,9.13
2022-11-29T12:28:21.176Z,9.13
2022-11-29T12:31:06.226Z,9.08
2022-11-29T12:33:38.824Z,8.95
2022-11-29T12:36:25.085Z,8.84
2022-11-29T12:38:54.318Z,8.83
2022-11-29T12:41:34.922Z,8.86
2022-11-29T12:44:10.680Z,8.83
2022-11-29T12:46:38.423Z,8.80
2022-11-29T12:49:22.490Z,8.65
2022-11-29T12:52:20.941Z,8.69
2022-11-29T12:55:08.809Z,8.68
2022-11-29T12:57:58.312Z,8.69
2022-11-29T13:00:28.771Z,8.63
2022-11-29T13:03:27.550Z,8.58
2022-11-29T13:06:07.766Z,8.77
2022-11-29T13:08:52.698Z,8.70
2022-11-29T13:11:30.196Z,8.64
2022-11-29T13:17:21.400Z,8.50
2022-11-29T13:19:53.800Z,8.57
2022-11-29T13:23:12.202Z,8.62
2022-11-29T13:25:42.529Z,8.54
2022-11-29T13:28:21.008Z,8.56
2022-11-29T13:30:47.612Z,8.57
2022-11-29T13:33:26.243Z,8.60
2022-11-29T13:36:17.910Z,8.41
2022-11-29T13:39:26.841Z,8.49
2022-11-29T13:42:04.625Z,8.48
2022-11-29T13:44:39.969Z,8.42
2022-11-29T13:47:14.754Z,8.43
2022-11-29T13:50:02.657Z,8.27
2022-11-29T13:52:40.144Z,8.36
2022-11-29T13:55:12.714Z,8.19
2022-11-29T13:58:21.972Z,8.22
2022-11-29T14:00:51.016Z,8.11
2022-11-29T14:03:23.368Z,8.07
2022-11-29T14:05:51.801Z,8.06
2022-11-29T14:08:25.736Z,8.01
2022-11-29T14:10:56.614Z,7.99
2022-11-29T14:13:31.009Z,7.97
2022-11-29T14:15:59.990Z,7.90
2022-11-29T14:18:40.616Z,7.88
2022-11-29T14:21:07.211Z,7.93
2022-11-29T14:23:40.355Z,7.77
2022-11-29T14:26:06.693Z,7.74
2022-11-29T14:28:40.928Z,7.72
2022-11-29T14:31:09.493Z,7.64
2022-11-29T14:34:05.538Z,7.65
2022-11-29T14:37:04.230Z,7.71
2022-11-29T14:39:47.482Z,7.70
2022-11-29T14:42:19.141Z,7.67
2022-11-29T14:44:51.137Z,7.50
2022-11-29T14:47:29.668Z,7.54
2022-11-29T14:49:57.566Z,7.42
2022-11-29T14:52:35.780Z,7.49
2022-11-29T14:55:27.806Z,7.48
2022-11-29T14:58:06.191Z,7.36
2022-11-29T15:00:32.641Z,7.42
2022-11-29T15:03:12.938Z,7.39
2022-11-29T15:06:02.263Z,7.42
2022-11-29T15:08:47.736Z,7.27
2022-11-29T15:11:36.374Z,7.25
2022-11-29T15:14:28.584Z,7.24
2022-11-29T15:16:57.958Z,7.16
2022-11-29T15:19:57.656Z,7.13
2022-11-29T15:22:56.217Z,7.13
2022-11-29T15:25:25.909Z,7.16
2022-11-29T15:27:54.174Z,7.16
2022-11-29T15:30:38.333Z,7.13
2022-11-29T15:33:19.712Z,7.10
2022-11-29T15:35:54.909Z,7.14
2022-11-29T15:38:22.804Z,7.13
2022-11-29T15:40:54.533Z,7.06
2022-11-29T15:43:30.359Z,7.15
2022-11-29T15:45:58.258Z,7.12
2022-11-29T15:48:27.094Z,7.10
2022-11-29T15:50:59.505Z,7.10
2022-11-29T15:53:38.638Z,7.02
2022-11-29T15:56:30.829Z,7.08
2022-11-29T15:59:02.265Z,7.06
2022-11-29T16:01:29.092Z,7.09
2022-11-29T16:03:57.865Z,7.12
2022-11-29T16:06:39.233Z,7.00
2022-11-29T16:09:17.572Z,7.04
2022-11-29T16:11:45.213Z,7.10
2022-11-29T16:14:11.571Z,7.04
2022-11-29T16:16:39.926Z,7.10
2022-11-29T16:19:10.760Z,7.09
2022-11-29T16:21:37.165Z,7.08
2022-11-29T16:24:19.476Z,7.10
2022-11-29T16:26:47.153Z,7.11
2022-11-29T16:29:41.657Z,7.11
2022-11-29T16:32:31.531Z,7.12
2022-11-29T16:35:12.772Z,7.02
2022-11-29T16:37:42.467Z,7.09
2022-11-29T16:40:31.301Z,7.12
2022-11-29T16:43:03.370Z,7.18
2022-11-29T16:45:34.279Z,7.05
2022-11-29T16:48:02.690Z,7.08
2022-11-29T16:50:30.960Z,7.05
2022-11-29T16:53:39.994Z,6.99
2022-11-29T16:56:11.308Z,7.04
2022-11-29T16:59:17.188Z,7.02
2022-11-29T17:01:28.598Z,7.00
2022-11-29T17:03:57.441Z,7.00
2022-11-29T17:06:25.478Z,6.89
2022-11-29T17:08:53.413Z,6.91
2022-11-29T17:11:20.050Z,6.82
2022-11-29T17:13:47.798Z,6.92
2022-11-29T17:16:16.680Z,7.00
2022-11-29T17:18:44.779Z,7.07
2022-11-29T17:21:29.314Z,7.00
2022-11-29T17:23:55.809Z,6.99
2022-11-29T17:26:23.672Z,6.99
2022-11-29T17:28:51.886Z,7.05
2022-11-29T17:31:21.560Z,6.94
2022-11-29T17:33:48.346Z,6.91
2022-11-29T17:36:17.246Z,6.98
2022-11-29T17:38:44.974Z,6.95
2022-11-29T17:41:13.687Z,6.97
2022-11-29T17:43:40.624Z,6.98
2022-11-29T17:46:13.326Z,6.97
2022-11-29T17:48:39.833Z,6.94
2022-11-29T17:51:28.803Z,6.95
2022-11-29T17:53:55.004Z,6.97
2022-11-29T17:56:24.634Z,6.84
2022-11-29T17:58:52.446Z,6.79
2022-11-29T18:01:21.643Z,6.89
2022-11-29T18:03:50.767Z,6.96
2022-11-29T18:06:19.965Z,6.96
2022-11-29T18:08:48.962Z,6.91
2022-11-29T18:11:20.733Z,6.89
2022-11-29T18:13:47.509Z,6.91
2022-11-29T18:16:23.035Z,6.94
2022-11-29T18:19:01.589Z,6.71
2022-11-29T18:21:28.867Z,7.17
2022-11-29T18:23:55.545Z,6.91
2022-11-29T18:26:26.737Z,6.87
2022-11-29T18:28:53.257Z,6.91
2022-11-29T18:31:22.672Z,6.92
2022-11-29T18:33:52.035Z,6.79
2022-11-29T18:36:24.469Z,6.79
2022-11-29T18:38:56.658Z,6.77
2022-11-29T18:41:24.448Z,6.74
2022-11-29T18:44:01.473Z,6.73
2022-11-29T18:46:36.756Z,6.71
2022-11-29T18:49:09.876Z,6.72
2022-11-29T18:51:37.161Z,6.63
2022-11-29T18:54:04.703Z,6.74
2022-11-29T18:56:34.272Z,6.68
2022-11-29T18:59:04.259Z,6.76
2022-11-29T19:01:34.278Z,6.73
2022-11-29T19:04:01.899Z,6.74
2022-11-29T19:06:38.586Z,6.82
2022-11-29T19:09:06.524Z,6.86
2022-11-29T19:11:34.264Z,6.83
2022-11-29T19:14:03.995Z,6.81
2022-11-29T19:16:32.448Z,6.80
2022-11-29T19:19:00.359Z,6.86
2022-11-29T19:21:31.672Z,6.78
2022-11-29T19:24:00.310Z,6.77
2022-11-29T19:26:28.451Z,6.80
2022-11-29T19:28:55.270Z,6.83
2022-11-29T19:31:25.078Z,6.89
2022-11-29T19:33:52.637Z,6.89
2022-11-29T19:36:23.812Z,6.94
2022-11-29T19:38:53.859Z,6.97
2022-11-29T19:41:29.503Z,6.93
2022-11-29T19:43:57.700Z,6.97
2022-11-29T19:46:26.633Z,6.91
2022-11-29T19:48:54.704Z,6.90
2022-11-29T19:51:21.810Z,6.95
2022-11-29T19:53:52.400Z,6.79
2022-11-29T19:56:20.423Z,6.98
2022-11-29T19:58:47.194Z,6.99
2022-11-29T20:01:18.999Z,6.88
2022-11-29T20:03:46.017Z,7.05
2022-11-29T20:06:13.595Z,6.92
2022-11-29T20:08:40.683Z,6.93
2022-11-29T20:11:15.287Z,6.92
2022-11-29T20:13:45.189Z,6.98
2022-11-29T20:16:14.557Z,6.84
2022-11-29T20:18:50.124Z,6.79
2022-11-29T20:21:22.231Z,6.78
2022-11-29T20:23:49.260Z,6.71
2022-11-29T20:26:19.003Z,6.64
2022-11-29T20:28:46.942Z,6.70
2022-11-29T20:31:16.456Z,6.72
2022-11-29T20:33:46.190Z,6.69
2022-11-29T20:36:18.475Z,6.61
2022-11-29T20:39:11.280Z,6.73
2022-11-29T20:41:44.164Z,6.65
2022-11-29T20:44:17.988Z,6.62
2022-11-29T20:46:44.572Z,6.68
2022-11-29T20:49:14.109Z,6.58
2022-11-29T20:51:58.399Z,6.39
2022-11-29T20:54:24.763Z,6.60
2022-11-29T20:56:51.110Z,6.63
2022-11-29T20:59:17.484Z,6.57
2022-11-29T21:01:43.918Z,6.60
2022-11-29T21:04:10.517Z,6.69
2022-11-29T21:06:38.305Z,6.66
2022-11-29T21:09:05.655Z,6.58
2022-11-29T21:11:32.387Z,6.46
2022-11-29T21:14:03.395Z,6.64
2022-11-29T21:16:31.071Z,6.64
2022-11-29T21:19:00.295Z,6.53
2022-11-29T21:21:44.725Z,6.61
2022-11-29T21:24:36.613Z,6.64
2022-11-29T21:27:03.520Z,6.65
2022-11-29T21:29:30.143Z,6.60
2022-11-29T21:31:56.809Z,6.54
2022-11-29T21:34:23.204Z,6.57
2022-11-29T21:36:55.517Z,6.63
2022-11-29T21:39:24.231Z,6.62
2022-11-29T21:41:50.712Z,6.64
2022-11-29T21:44:17.045Z,6.59
2022-11-29T21:46:43.464Z,6.59
2022-11-29T21:49:09.912Z,6.61
2022-11-29T21:51:36.285Z,6.61
2022-11-29T21:54:03.002Z,6.64
2022-11-29T21:56:29.458Z,6.53
2022-11-29T21:58:55.793Z,6.78
2022-11-29T22:01:22.288Z,6.70
2022-11-29T22:03:51.867Z,6.69
2022-11-29T22:06:20.344Z,6.64
2022-11-29T22:08:48.141Z,6.73
2022-11-29T22:11:16.915Z,6.71
2022-11-29T22:14:03.087Z,6.53
2022-11-29T22:16:29.999Z,6.63
2022-11-29T22:18:56.457Z,6.67
2022-11-29T22:21:22.916Z,6.65
2022-11-29T22:23:49.456Z,6.70
2022-11-29T22:26:15.841Z,6.69
2022-11-29T22:28:42.225Z,6.69
2022-11-29T22:31:10.811Z,6.71
2022-11-29T22:33:38.164Z,6.62
2022-11-29T22:36:10.544Z,6.63
2022-11-29T22:38:37.839Z,6.61
2022-11-29T22:41:07.336Z,6.71
2022-11-29T22:43:34.193Z,6.76
2022-11-29T22:46:15.181Z,6.77
2022-11-29T22:48:43.781Z,6.73
2022-11-29T22:51:13.211Z,6.72
2022-11-29T22:53:41.918Z,6.63
2022-11-29T22:56:10.711Z,6.72
2022-11-29T22:58:37.440Z,6.63
2022-11-29T23:01:09.406Z,6.64
2022-11-29T23:03:37.230Z,6.72
2022-11-29T23:06:17.540Z,6.68
2022-11-29T23:08:45.360Z,6.64
2022-11-29T23:11:14.503Z,6.71
2022-11-29T23:13:42.645Z,6.72
2022-11-29T23:16:12.579Z,6.68
2022-11-29T23:18:39.919Z,6.68
2022-11-29T23:21:09.429Z,6.63
2022-11-29T23:23:36.982Z,6.64
2022-11-29T23:26:04.701Z,6.63
2022-11-29T23:28:31.541Z,6.57
2022-11-29T23:30:59.019Z,6.60
2022-11-29T23:33:26.919Z,6.66
2022-11-29T23:36:02.834Z,6.65
2022-11-29T23:38:29.517Z,6.73
2022-11-29T23:40:55.955Z,6.76
2022-11-29T23:43:22.665Z,6.55
2022-11-29T23:45:49.511Z,6.78
2022-11-29T23:48:16.248Z,6.81
2022-11-29T23:50:43.786Z,6.76
2022-11-29T23:53:13.176Z,6.63
2022-11-29T23:55:39.625Z,6.79
2022-11-29T23:58:06.534Z,6.73
